createdAt,value
2018-03-29T00:00:08.378Z,5.70
2018-03-29T00:01:08.376Z,5.73
2018-03-29T00:02:08.364Z,5.77
2018-03-29T00:03:08.353Z,5.73
2018-03-29T00:04:08.356Z,5.74
2018-03-29T00:05:08.336Z,5.78
2018-03-29T00:06:08.329Z,5.78
2018-03-29T00:07:08.315Z,5.77
2018-03-29T00:08:08.305Z,5.69
2018-03-29T00:09:08.296Z,5.73
2018-03-29T00:10:08.288Z,5.66
2018-03-29T00:11:08.278Z,5.67
2018-03-29T00:12:08.268Z,5.73
2018-03-29T00:13:08.260Z,5.73
2018-03-29T00:14:08.252Z,5.83
2018-03-29T00:15:08.243Z,5.81
2018-03-29T00:16:08.232Z,5.80
2018-03-29T00:17:08.223Z,5.93
2018-03-29T00:18:08.214Z,5.88
2018-03-29T00:19:08.209Z,5.87
2018-03-29T00:20:08.200Z,5.96
2018-03-29T00:21:08.186Z,5.88
2018-03-29T00:22:08.178Z,5.96
2018-03-29T00:23:08.175Z,5.98
2018-03-29T00:24:08.163Z,5.99
2018-03-29T00:25:08.150Z,5.96
2018-03-29T00:26:08.142Z,5.96
2018-03-29T00:27:08.133Z,5.88
2018-03-29T00:28:08.123Z,5.96
2018-03-29T00:29:08.114Z,5.95
2018-03-29T00:30:08.106Z,5.92
2018-03-29T00:31:08.101Z,5.90
2018-03-29T00:32:08.094Z,5.92
2018-03-29T00:33:08.077Z,5.99
2018-03-29T00:34:08.069Z,5.95
2018-03-29T00:35:08.060Z,5.98
2018-03-29T00:36:08.050Z,5.99
2018-03-29T00:37:08.039Z,6.10
2018-03-29T00:38:08.032Z,5.95
2018-03-29T00:39:08.022Z,6.03
2018-03-29T00:40:08.012Z,6.01
2018-03-29T00:41:08.004Z,6.08
2018-03-29T00:42:08.000Z,6.08
2018-03-29T00:43:07.990Z,6.06
2018-03-29T00:44:07.979Z,6.06
2018-03-29T00:45:07.971Z,6.05
2018-03-29T00:46:07.962Z,5.93
2018-03-29T00:47:07.948Z,5.92
2018-03-29T00:48:07.939Z,6.05
2018-03-29T00:49:07.931Z,6.02
2018-03-29T00:50:07.922Z,6.01
2018-03-29T00:51:07.913Z,5.95
2018-03-29T00:52:07.906Z,5.98
2018-03-29T00:53:07.893Z,5.95
2018-03-29T00:54:07.885Z,6.08
2018-03-29T00:55:07.876Z,6.03
2018-03-29T00:56:07.867Z,5.98
2018-03-29T00:57:07.861Z,5.96
2018-03-29T00:58:07.851Z,5.98
2018-03-29T00:59:07.838Z,5.95
2018-03-29T01:00:07.830Z,5.98
2018-03-29T01:01:07.821Z,5.90
2018-03-29T01:02:07.811Z,5.98
2018-03-29T01:03:07.806Z,6.02
2018-03-29T01:04:07.801Z,5.98
2018-03-29T01:05:07.830Z,5.98
2018-03-29T01:06:07.775Z,6.01
2018-03-29T01:07:07.767Z,5.96
2018-03-29T01:08:07.757Z,5.95
2018-03-29T01:09:07.746Z,5.93
2018-03-29T01:10:07.738Z,6.01
2018-03-29T01:11:07.730Z,6.03
2018-03-29T01:12:07.718Z,6.08
2018-03-29T01:13:07.711Z,6.05
2018-03-29T01:14:07.700Z,6.03
2018-03-29T01:15:07.695Z,6.05
2018-03-29T01:16:07.686Z,6.10
2018-03-29T01:17:07.677Z,6.06
2018-03-29T01:18:07.668Z,6.08
2018-03-29T01:19:07.659Z,5.98
2018-03-29T01:20:07.645Z,6.03
2018-03-29T01:21:07.637Z,6.02
2018-03-29T01:22:07.628Z,5.96
2018-03-29T01:23:07.669Z,5.95
2018-03-29T01:24:07.609Z,5.96
2018-03-29T01:25:07.600Z,5.92
2018-03-29T01:26:07.590Z,5.85
2018-03-29T01:27:07.582Z,5.92
2018-03-29T01:28:07.572Z,5.80
2018-03-29T01:29:07.568Z,5.90
2018-03-29T01:30:07.557Z,5.90
2018-03-29T01:31:07.545Z,5.80
2018-03-29T01:32:07.535Z,5.87
2018-03-29T01:33:07.526Z,5.88
2018-03-29T01:34:07.522Z,5.84
2018-03-29T01:35:07.515Z,5.84
2018-03-29T01:36:07.502Z,5.84
2018-03-29T01:37:07.490Z,5.90
2018-03-29T01:38:07.481Z,5.92
2018-03-29T01:39:07.472Z,5.88
2018-03-29T01:40:07.461Z,5.87
2018-03-29T01:41:07.452Z,5.85
2018-03-29T01:42:07.449Z,5.84
2018-03-29T01:43:07.435Z,5.88
2018-03-29T01:44:07.424Z,5.81
2018-03-29T01:45:07.424Z,5.87
2018-03-29T01:46:07.406Z,5.83
2018-03-29T01:47:07.401Z,5.85
2018-03-29T01:48:07.393Z,5.88
2018-03-29T01:49:07.382Z,5.85
2018-03-29T01:50:07.377Z,5.81
2018-03-29T01:51:07.360Z,5.81
2018-03-29T01:52:07.351Z,5.78
2018-03-29T01:53:07.342Z,5.88
2018-03-29T01:54:07.333Z,5.88
2018-03-29T01:55:07.324Z,5.84
2018-03-29T01:56:07.315Z,5.75
2018-03-29T01:57:07.306Z,5.83
2018-03-29T01:58:07.295Z,5.87
2018-03-29T01:59:07.286Z,5.83
2018-03-29T02:00:07.328Z,5.77
2018-03-29T02:01:07.273Z,5.77
2018-03-29T02:02:07.264Z,5.90
2018-03-29T02:03:07.250Z,5.93
2018-03-29T02:04:07.239Z,5.83
2018-03-29T02:05:07.231Z,5.88
2018-03-29T02:06:07.222Z,5.92
2018-03-29T02:07:07.218Z,5.93
2018-03-29T02:08:07.206Z,5.88
2018-03-29T02:09:07.198Z,5.83
2018-03-29T02:10:07.185Z,5.77
2018-03-29T02:11:07.176Z,5.85
2018-03-29T02:12:07.168Z,5.96
2018-03-29T02:13:07.162Z,5.95
2018-03-29T02:14:07.149Z,5.98
2018-03-29T02:15:07.139Z,5.87
2018-03-29T02:16:07.129Z,5.92
2018-03-29T02:17:07.123Z,5.95
2018-03-29T02:18:07.112Z,5.96
2018-03-29T02:19:07.109Z,5.88
2018-03-29T02:20:07.098Z,5.90
2018-03-29T02:21:07.089Z,5.88
2018-03-29T02:22:07.085Z,5.90
2018-03-29T02:23:07.066Z,5.87
2018-03-29T02:24:07.057Z,5.85
2018-03-29T02:25:07.048Z,5.80
2018-03-29T02:26:07.040Z,5.87
2018-03-29T02:27:07.031Z,5.87
2018-03-29T02:28:07.020Z,5.88
2018-03-29T02:29:07.012Z,5.85
2018-03-29T02:30:07.005Z,5.85
2018-03-29T02:31:06.994Z,5.90
2018-03-29T02:32:06.987Z,5.88
2018-03-29T02:33:06.982Z,5.88
2018-03-29T02:34:06.971Z,5.87
2018-03-29T02:35:06.958Z,5.80
2018-03-29T02:36:06.956Z,5.85
2018-03-29T02:37:06.939Z,5.84
2018-03-29T02:38:06.930Z,5.83
2018-03-29T02:39:06.922Z,5.88
2018-03-29T02:40:06.914Z,5.96
2018-03-29T02:41:06.906Z,5.98
2018-03-29T02:42:06.898Z,5.90
2018-03-29T02:43:06.885Z,5.88
2018-03-29T02:44:06.875Z,5.88
2018-03-29T02:45:06.870Z,5.88
2018-03-29T02:46:06.861Z,5.88
2018-03-29T02:47:06.849Z,5.90
2018-03-29T02:48:06.838Z,5.88
2018-03-29T02:49:06.829Z,5.88
2018-03-29T02:50:06.820Z,5.83
2018-03-29T02:51:06.812Z,5.88
2018-03-29T02:52:06.803Z,5.88
2018-03-29T02:53:06.794Z,5.92
2018-03-29T02:54:06.785Z,5.87
2018-03-29T02:55:06.779Z,5.84
2018-03-29T02:56:06.765Z,5.88
2018-03-29T02:57:06.756Z,5.85
2018-03-29T02:58:06.747Z,5.93
2018-03-29T02:59:06.748Z,5.99
2018-03-29T03:00:06.733Z,5.96
2018-03-29T03:01:06.720Z,5.85
2018-03-29T03:02:06.712Z,5.98
2018-03-29T03:03:06.706Z,5.98
2018-03-29T03:04:06.695Z,5.98
2018-03-29T03:05:06.683Z,5.90
2018-03-29T03:06:06.674Z,5.93
2018-03-29T03:07:06.664Z,5.96
2018-03-29T03:08:06.655Z,5.88
2018-03-29T03:09:06.651Z,5.96
2018-03-29T03:10:06.637Z,5.93
2018-03-29T03:11:06.633Z,5.99
2018-03-29T03:12:06.617Z,5.95
2018-03-29T03:13:06.612Z,5.96
2018-03-29T03:14:06.603Z,5.96
2018-03-29T03:15:06.590Z,5.96
2018-03-29T03:16:06.582Z,5.93
2018-03-29T03:17:06.575Z,5.99
2018-03-29T03:18:06.568Z,5.95
2018-03-29T03:19:06.553Z,6.03
2018-03-29T03:20:06.545Z,6.03
2018-03-29T03:21:06.536Z,6.03
2018-03-29T03:22:06.530Z,6.03
2018-03-29T03:23:06.517Z,6.06
2018-03-29T03:24:06.512Z,6.17
2018-03-29T03:25:06.500Z,6.08
2018-03-29T03:26:06.491Z,5.98
2018-03-29T03:27:06.480Z,5.87
2018-03-29T03:28:06.472Z,5.90
2018-03-29T03:29:06.461Z,5.81
2018-03-29T03:30:06.454Z,5.83
2018-03-29T03:31:06.451Z,5.84
2018-03-29T03:32:06.438Z,5.84
2018-03-29T03:33:06.426Z,5.77
2018-03-29T03:34:06.416Z,5.87
2018-03-29T03:35:06.411Z,5.84
2018-03-29T03:36:06.401Z,5.77
2018-03-29T03:37:06.407Z,5.87
2018-03-29T03:38:06.382Z,5.81
2018-03-29T03:39:06.370Z,5.78
2018-03-29T03:40:06.360Z,5.78
2018-03-29T03:41:06.357Z,5.80
2018-03-29T03:42:06.342Z,5.81
2018-03-29T03:43:06.337Z,5.81
2018-03-29T03:44:06.327Z,5.77
2018-03-29T03:45:06.314Z,5.80
2018-03-29T03:46:06.306Z,5.80
2018-03-29T03:47:06.298Z,5.78
2018-03-29T03:48:06.294Z,5.81
2018-03-29T03:49:06.278Z,5.90
2018-03-29T03:50:06.269Z,5.90
2018-03-29T03:51:06.267Z,5.95
2018-03-29T03:52:06.251Z,5.96
2018-03-29T03:53:06.240Z,5.96
2018-03-29T03:54:06.232Z,5.90
2018-03-29T03:55:06.228Z,5.99
2018-03-29T03:56:06.216Z,5.93
2018-03-29T03:57:06.208Z,5.99
2018-03-29T03:58:06.202Z,5.95
2018-03-29T03:59:06.189Z,6.06
2018-03-29T04:00:06.176Z,6.01
2018-03-29T04:01:06.167Z,5.99
2018-03-29T04:02:06.160Z,5.98
2018-03-29T04:03:06.149Z,5.96
2018-03-29T04:04:06.145Z,5.99
2018-03-29T04:05:06.133Z,5.88
2018-03-29T04:06:06.122Z,5.96
2018-03-29T04:07:06.113Z,5.96
2018-03-29T04:08:06.104Z,5.99
2018-03-29T04:09:06.098Z,5.95
2018-03-29T04:10:06.089Z,5.95
2018-03-29T04:11:06.076Z,5.98
2018-03-29T04:12:06.066Z,5.88
2018-03-29T04:13:06.057Z,5.92
2018-03-29T04:14:06.053Z,5.93
2018-03-29T04:15:06.042Z,5.98
2018-03-29T04:16:06.034Z,5.96
2018-03-29T04:17:06.021Z,5.87
2018-03-29T04:18:06.012Z,5.92
2018-03-29T04:19:06.005Z,5.95
2018-03-29T04:20:05.994Z,5.88
2018-03-29T04:21:05.983Z,5.84
2018-03-29T04:22:05.975Z,5.87
2018-03-29T04:23:05.970Z,5.81
2018-03-29T04:24:05.958Z,5.83
2018-03-29T04:25:05.946Z,5.95
2018-03-29T04:26:05.942Z,5.88
2018-03-29T04:27:05.934Z,5.92
2018-03-29T04:28:05.923Z,5.78
2018-03-29T04:29:05.914Z,5.78
2018-03-29T04:30:05.905Z,5.83
2018-03-29T04:31:05.902Z,5.87
2018-03-29T04:32:05.882Z,5.88
2018-03-29T04:33:05.874Z,5.83
2018-03-29T04:34:05.864Z,5.88
2018-03-29T04:35:05.856Z,5.84
2018-03-29T04:36:05.858Z,5.84
2018-03-29T04:37:05.837Z,5.93
2018-03-29T04:38:05.828Z,5.93
2018-03-29T04:39:05.818Z,5.95
2018-03-29T04:40:05.812Z,5.93
2018-03-29T04:41:05.808Z,5.95
2018-03-29T04:42:05.800Z,5.95
2018-03-29T04:43:05.783Z,5.95
2018-03-29T04:44:05.773Z,5.96
2018-03-29T04:45:05.764Z,5.84
2018-03-29T04:46:05.758Z,5.88
2018-03-29T04:47:05.747Z,5.93
2018-03-29T04:48:05.737Z,5.96
2018-03-29T04:49:05.734Z,5.95
2018-03-29T04:50:05.723Z,5.95
2018-03-29T04:51:05.710Z,5.93
2018-03-29T04:52:05.701Z,5.95
2018-03-29T04:53:05.695Z,5.95
2018-03-29T04:54:05.687Z,5.90
2018-03-29T04:55:05.675Z,5.95
2018-03-29T04:56:05.664Z,5.90
2018-03-29T04:57:05.656Z,5.95
2018-03-29T04:58:05.647Z,5.92
2018-03-29T04:59:05.638Z,6.13
2018-03-29T05:00:05.628Z,6.16
2018-03-29T05:01:05.620Z,6.11
2018-03-29T05:02:05.612Z,6.02
2018-03-29T05:03:05.602Z,6.06
2018-03-29T05:04:05.592Z,6.08
2018-03-29T05:05:05.583Z,6.14
2018-03-29T05:06:05.574Z,6.11
2018-03-29T05:07:05.570Z,6.17
2018-03-29T05:08:05.560Z,6.08
2018-03-29T05:09:05.547Z,6.11
2018-03-29T05:10:05.543Z,6.11
2018-03-29T05:11:05.533Z,6.11
2018-03-29T05:12:05.524Z,6.17
2018-03-29T05:13:05.511Z,6.10
2018-03-29T05:14:05.504Z,6.11
2018-03-29T05:15:05.498Z,6.10
2018-03-29T05:16:05.485Z,6.10
2018-03-29T05:17:05.475Z,6.11
2018-03-29T05:18:05.466Z,6.13
2018-03-29T05:19:05.458Z,6.08
2018-03-29T05:20:05.448Z,6.14
2018-03-29T05:21:05.443Z,6.13
2018-03-29T05:22:05.435Z,6.10
2018-03-29T05:23:05.421Z,6.14
2018-03-29T05:24:05.415Z,6.05
2018-03-29T05:25:05.407Z,6.10
2018-03-29T05:26:05.402Z,6.16
2018-03-29T05:27:05.387Z,6.11
2018-03-29T05:28:05.376Z,6.13
2018-03-29T05:29:05.368Z,6.17
2018-03-29T05:30:05.363Z,6.17
2018-03-29T05:31:05.350Z,6.14
2018-03-29T05:32:05.340Z,6.16
2018-03-29T05:33:05.334Z,6.14
2018-03-29T05:34:05.323Z,6.11
2018-03-29T05:35:05.316Z,6.16
2018-03-29T05:36:05.306Z,6.16
2018-03-29T05:37:05.297Z,6.28
2018-03-29T05:38:05.287Z,6.32
2018-03-29T05:39:05.282Z,6.28
2018-03-29T05:40:05.293Z,6.27
2018-03-29T05:41:05.261Z,6.32
2018-03-29T05:42:05.251Z,6.27
2018-03-29T05:43:05.247Z,6.27
2018-03-29T05:44:05.237Z,6.30
2018-03-29T05:45:05.225Z,6.27
2018-03-29T05:46:05.217Z,6.35
2018-03-29T05:47:05.207Z,6.35
2018-03-29T05:48:05.198Z,6.35
2018-03-29T05:49:05.188Z,6.30
2018-03-29T05:50:05.180Z,6.42
2018-03-29T05:51:05.175Z,6.35
2018-03-29T05:52:05.168Z,6.39
2018-03-29T05:53:05.152Z,6.40
2018-03-29T05:54:05.145Z,6.35
2018-03-29T05:55:05.135Z,6.39
2018-03-29T05:56:05.127Z,6.40
2018-03-29T05:57:05.118Z,6.39
2018-03-29T05:58:05.108Z,6.51
2018-03-29T05:59:05.100Z,6.43
2018-03-29T06:00:05.095Z,6.40
2018-03-29T06:01:05.082Z,6.43
2018-03-29T06:02:05.073Z,6.43
2018-03-29T06:03:05.137Z,6.53
2018-03-29T06:04:05.059Z,6.55
2018-03-29T06:05:05.055Z,6.48
2018-03-29T06:06:05.042Z,6.50
2018-03-29T06:07:05.030Z,6.58
2018-03-29T06:08:05.020Z,6.57
2018-03-29T06:09:05.013Z,6.65
2018-03-29T06:10:05.003Z,6.68
2018-03-29T06:11:05.037Z,6.63
2018-03-29T06:12:04.986Z,6.63
2018-03-29T06:13:04.980Z,6.63
2018-03-29T06:14:04.971Z,6.76
2018-03-29T06:15:04.959Z,6.72
2018-03-29T06:16:04.950Z,6.71
2018-03-29T06:17:04.945Z,6.54
2018-03-29T06:18:04.937Z,6.75
2018-03-29T06:19:04.926Z,6.58
2018-03-29T06:20:04.916Z,6.72
2018-03-29T06:21:04.906Z,6.72
2018-03-29T06:22:04.900Z,6.75
2018-03-29T06:23:04.893Z,6.73
2018-03-29T06:24:04.884Z,6.76
2018-03-29T06:25:04.873Z,6.71
2018-03-29T06:26:04.865Z,6.73
2018-03-29T06:27:04.855Z,6.75
2018-03-29T06:28:04.846Z,6.73
2018-03-29T06:29:04.838Z,6.72
2018-03-29T06:30:04.832Z,6.76
2018-03-29T06:31:04.821Z,6.73
2018-03-29T06:32:04.811Z,6.75
2018-03-29T06:33:04.803Z,6.75
2018-03-29T06:34:04.794Z,6.82
2018-03-29T06:35:04.791Z,6.89
2018-03-29T06:36:04.781Z,6.91
2018-03-29T06:37:04.772Z,6.82
2018-03-29T06:38:04.764Z,6.73
2018-03-29T06:39:04.752Z,6.86
2018-03-29T06:40:04.742Z,6.82
2018-03-29T06:41:04.734Z,6.89
2018-03-29T06:42:04.725Z,6.81
2018-03-29T06:43:04.716Z,6.90
2018-03-29T06:44:04.707Z,6.87
2018-03-29T06:45:04.700Z,6.89
2018-03-29T06:46:04.697Z,6.89
2018-03-29T06:47:04.745Z,6.76
2018-03-29T06:48:04.673Z,6.72
2018-03-29T06:49:04.668Z,6.72
2018-03-29T06:50:04.660Z,6.82
2018-03-29T06:51:04.652Z,6.76
2018-03-29T06:52:04.639Z,6.79
2018-03-29T06:53:04.631Z,6.76
2018-03-29T06:54:04.621Z,6.73
2018-03-29T06:55:04.613Z,6.72
2018-03-29T06:56:04.603Z,6.75
2018-03-29T06:57:04.598Z,6.58
2018-03-29T06:58:04.591Z,6.64
2018-03-29T06:59:04.578Z,6.60
2018-03-29T07:00:04.573Z,6.57
2018-03-29T07:01:04.591Z,6.55
2018-03-29T07:02:04.556Z,6.60
2018-03-29T07:03:04.543Z,6.55
2018-03-29T07:04:04.533Z,6.50
2018-03-29T07:05:04.524Z,6.53
2018-03-29T07:06:04.521Z,6.48
2018-03-29T07:07:04.507Z,6.48
2018-03-29T07:08:04.498Z,6.48
2018-03-29T07:09:04.490Z,6.48
2018-03-29T07:10:04.481Z,6.46
2018-03-29T07:11:04.473Z,6.53
2018-03-29T07:12:04.463Z,6.55
2018-03-29T07:13:04.461Z,6.55
2018-03-29T07:14:04.444Z,6.58
2018-03-29T07:15:04.441Z,6.54
2018-03-29T07:16:04.431Z,6.51
2018-03-29T07:17:04.419Z,6.55
2018-03-29T07:18:04.412Z,6.57
2018-03-29T07:19:04.405Z,6.45
2018-03-29T07:20:04.397Z,6.40
2018-03-29T07:21:04.384Z,6.54
2018-03-29T07:22:04.376Z,6.53
2018-03-29T07:23:04.367Z,6.57
2018-03-29T07:24:04.357Z,6.55
2018-03-29T07:25:04.349Z,6.54
2018-03-29T07:26:04.340Z,6.55
2018-03-29T07:27:04.333Z,6.57
2018-03-29T07:28:04.322Z,6.63
2018-03-29T07:29:04.318Z,6.61
2018-03-29T07:30:04.310Z,6.57
2018-03-29T07:31:04.296Z,6.60
2018-03-29T07:32:04.289Z,6.75
2018-03-29T07:33:04.283Z,6.69
2018-03-29T07:34:04.275Z,6.69
2018-03-29T07:35:04.262Z,6.73
2018-03-29T07:36:04.255Z,6.76
2018-03-29T07:37:04.253Z,6.69
2018-03-29T07:38:04.237Z,6.81
2018-03-29T07:39:04.228Z,6.79
2018-03-29T07:40:04.220Z,6.72
2018-03-29T07:41:04.214Z,6.81
2018-03-29T07:42:04.202Z,6.82
2018-03-29T07:43:04.197Z,6.79
2018-03-29T07:44:04.185Z,6.86
2018-03-29T07:45:04.176Z,6.81
2018-03-29T07:46:04.169Z,6.82
2018-03-29T07:47:04.170Z,6.97
2018-03-29T07:48:04.162Z,6.89
2018-03-29T07:49:04.142Z,6.91
2018-03-29T07:50:04.134Z,6.94
2018-03-29T07:51:04.133Z,6.94
2018-03-29T07:52:04.121Z,6.94
2018-03-29T07:53:04.109Z,6.91
2018-03-29T07:54:04.107Z,6.93
2018-03-29T07:55:04.092Z,6.97
2018-03-29T07:56:04.083Z,6.93
2018-03-29T07:57:04.075Z,7.01
2018-03-29T07:58:04.066Z,6.99
2018-03-29T07:59:04.063Z,6.99
2018-03-29T08:00:04.053Z,7.07
2018-03-29T08:01:04.042Z,7.05
2018-03-29T08:02:04.033Z,7.12
2018-03-29T08:03:04.025Z,7.14
2018-03-29T08:04:04.018Z,7.16
2018-03-29T08:05:04.009Z,7.24
2018-03-29T08:06:04.000Z,7.18
2018-03-29T08:07:03.993Z,7.12
2018-03-29T08:08:03.982Z,7.15
2018-03-29T08:09:03.975Z,7.09
2018-03-29T08:10:03.970Z,7.14
2018-03-29T08:11:03.975Z,7.12
2018-03-29T08:12:03.954Z,7.18
2018-03-29T08:13:03.946Z,7.16
2018-03-29T08:14:03.938Z,7.14
2018-03-29T08:15:03.930Z,7.30
2018-03-29T08:16:03.917Z,7.42
2018-03-29T08:17:03.910Z,7.44
2018-03-29T08:18:03.901Z,7.42
2018-03-29T08:19:03.894Z,7.41
2018-03-29T08:20:03.884Z,7.47
2018-03-29T08:21:03.877Z,7.54
2018-03-29T08:22:03.870Z,7.62
2018-03-29T08:23:03.863Z,7.58
2018-03-29T08:24:03.851Z,7.63
2018-03-29T08:25:03.847Z,7.63
2018-03-29T08:26:03.840Z,7.73
2018-03-29T08:27:03.827Z,7.69
2018-03-29T08:28:03.819Z,7.79
2018-03-29T08:29:03.811Z,7.73
2018-03-29T08:30:03.805Z,7.81
2018-03-29T08:31:03.802Z,7.71
2018-03-29T08:32:03.792Z,7.84
2018-03-29T08:33:03.781Z,7.91
2018-03-29T08:34:03.772Z,7.86
2018-03-29T08:35:03.766Z,7.85
2018-03-29T08:36:03.758Z,7.89
2018-03-29T08:37:03.749Z,7.85
2018-03-29T08:38:03.741Z,7.86
2018-03-29T08:39:03.734Z,7.84
2018-03-29T08:40:03.727Z,7.86
2018-03-29T08:41:03.718Z,8.00
2018-03-29T08:42:03.711Z,8.02
2018-03-29T08:43:03.707Z,8.13
2018-03-29T08:44:03.699Z,8.25
2018-03-29T08:45:03.691Z,8.06
2018-03-29T08:46:03.686Z,8.21
2018-03-29T08:47:03.673Z,8.34
2018-03-29T08:48:03.703Z,8.29
2018-03-29T08:49:03.657Z,8.36
2018-03-29T08:50:03.650Z,8.31
2018-03-29T08:51:03.643Z,8.43
2018-03-29T08:52:03.638Z,8.54
2018-03-29T08:53:03.628Z,8.50
2018-03-29T08:54:03.620Z,8.61
2018-03-29T08:55:03.613Z,8.75
2018-03-29T08:56:03.609Z,8.71
2018-03-29T08:57:03.602Z,8.82
2018-03-29T08:58:03.598Z,8.86
2018-03-29T08:59:03.583Z,8.89
2018-03-29T09:00:03.576Z,8.79
2018-03-29T09:01:03.569Z,8.83
2018-03-29T09:02:03.564Z,8.96
2018-03-29T09:03:03.560Z,9.01
2018-03-29T09:04:03.551Z,9.26
2018-03-29T09:05:03.545Z,9.48
2018-03-29T09:06:03.539Z,9.68
2018-03-29T09:07:03.528Z,9.83
2018-03-29T09:08:03.520Z,9.99
2018-03-29T09:09:03.518Z,9.96
2018-03-29T09:10:03.512Z,10.28
2018-03-29T09:11:03.502Z,10.58
2018-03-29T09:12:03.496Z,10.86
2018-03-29T09:13:03.490Z,11.05
2018-03-29T09:14:03.483Z,11.21
2018-03-29T09:15:03.478Z,11.41
2018-03-29T09:16:03.472Z,11.75
2018-03-29T09:17:03.468Z,11.98
2018-03-29T09:18:03.468Z,11.93
2018-03-29T09:19:03.498Z,11.87
2018-03-29T09:20:03.456Z,11.79
2018-03-29T09:21:03.476Z,11.90
2018-03-29T09:22:03.444Z,11.94
2018-03-29T09:23:03.444Z,12.07
2018-03-29T09:24:03.438Z,11.96
2018-03-29T09:25:03.437Z,11.87
2018-03-29T09:26:03.428Z,12.00
2018-03-29T09:27:03.428Z,12.43
2018-03-29T09:28:03.422Z,12.62
2018-03-29T09:29:03.416Z,12.79
2018-03-29T09:30:03.412Z,12.88
2018-03-29T09:31:03.409Z,13.14
2018-03-29T09:32:03.410Z,13.91
2018-03-29T09:33:03.401Z,13.93
2018-03-29T09:34:03.399Z,13.93
2018-03-29T09:35:03.397Z,13.24
2018-03-29T09:36:03.393Z,13.10
2018-03-29T09:37:03.395Z,12.71
2018-03-29T09:38:03.393Z,12.54
2018-03-29T09:39:03.386Z,12.41
2018-03-29T09:40:03.383Z,12.23
2018-03-29T09:41:03.386Z,12.03
2018-03-29T09:42:03.383Z,12.00
2018-03-29T09:43:03.377Z,12.62
2018-03-29T09:44:03.375Z,12.61
2018-03-29T09:45:03.373Z,12.44
2018-03-29T09:46:03.374Z,12.19
2018-03-29T09:47:03.368Z,12.11
2018-03-29T09:48:03.365Z,12.04
2018-03-29T09:49:03.363Z,12.25
2018-03-29T09:50:03.364Z,12.04
2018-03-29T09:51:03.362Z,12.12
2018-03-29T09:52:03.356Z,12.07
2018-03-29T09:53:03.364Z,11.94
2018-03-29T09:54:03.353Z,11.97
2018-03-29T09:55:03.355Z,11.98
2018-03-29T09:56:03.351Z,12.74
2018-03-29T09:57:03.345Z,12.58
2018-03-29T09:58:03.345Z,12.46
2018-03-29T09:59:03.347Z,12.49
2018-03-29T10:00:03.342Z,12.30
2018-03-29T10:01:03.340Z,12.26
2018-03-29T10:02:03.334Z,12.25
2018-03-29T10:03:03.339Z,12.51
2018-03-29T10:04:03.328Z,13.55
2018-03-29T10:05:03.336Z,14.53
2018-03-29T10:06:03.325Z,15.99
2018-03-29T10:07:03.324Z,16.41
2018-03-29T10:08:03.321Z,16.18
2018-03-29T10:09:03.322Z,16.45
2018-03-29T10:10:03.322Z,16.60
2018-03-29T10:11:03.320Z,17.30
2018-03-29T10:12:03.317Z,16.95
2018-03-29T10:13:03.323Z,17.43
2018-03-29T10:14:03.329Z,18.99
2018-03-29T10:15:03.322Z,20.22
2018-03-29T10:16:03.321Z,20.26
2018-03-29T10:17:03.325Z,20.34
2018-03-29T10:18:03.326Z,19.75
2018-03-29T10:19:03.333Z,20.81
2018-03-29T10:20:03.337Z,21.22
2018-03-29T10:21:03.339Z,21.56
2018-03-29T10:22:03.348Z,21.73
2018-03-29T10:23:03.347Z,21.43
2018-03-29T10:24:03.402Z,21.16
2018-03-29T10:25:03.359Z,21.26
2018-03-29T10:26:03.370Z,21.21
2018-03-29T10:27:03.372Z,19.75
2018-03-29T10:28:03.405Z,18.51
2018-03-29T10:29:03.380Z,17.18
2018-03-29T10:30:03.385Z,16.65
2018-03-29T10:31:03.400Z,15.85
2018-03-29T10:32:03.400Z,15.77
2018-03-29T10:33:03.402Z,15.55
2018-03-29T10:34:03.409Z,15.98
2018-03-29T10:35:03.413Z,16.54
2018-03-29T10:36:03.416Z,16.23
2018-03-29T10:37:03.422Z,15.99
2018-03-29T10:38:03.435Z,15.99
2018-03-29T10:39:03.433Z,16.98
2018-03-29T10:40:03.432Z,17.49
2018-03-29T10:41:03.447Z,18.38
2018-03-29T10:42:03.445Z,19.06
2018-03-29T10:43:03.448Z,20.33
2018-03-29T10:44:03.458Z,20.57
2018-03-29T10:45:03.463Z,20.69
2018-03-29T10:46:03.461Z,20.13
2018-03-29T10:47:03.462Z,19.15
2018-03-29T10:48:03.467Z,18.96
2018-03-29T10:49:03.471Z,18.79
2018-03-29T10:50:03.481Z,18.57
2018-03-29T10:51:03.484Z,18.69
2018-03-29T10:52:03.487Z,18.99
2018-03-29T10:53:03.492Z,17.95
2018-03-29T10:54:03.498Z,17.54
2018-03-29T10:55:03.503Z,17.00
2018-03-29T10:56:03.507Z,17.07
2018-03-29T10:57:03.511Z,16.77
2018-03-29T10:58:03.522Z,17.55
2018-03-29T10:59:03.523Z,18.74
2018-03-29T11:00:03.530Z,19.75
2018-03-29T11:01:03.527Z,20.73
2018-03-29T11:02:03.532Z,21.16
2018-03-29T11:03:03.541Z,21.77
2018-03-29T11:04:03.544Z,20.88
2018-03-29T11:05:03.546Z,20.76
2018-03-29T11:06:03.554Z,20.33
2018-03-29T11:07:03.557Z,21.34
2018-03-29T11:08:03.562Z,20.30
2018-03-29T11:09:03.566Z,19.68
2018-03-29T11:10:03.574Z,20.38
2018-03-29T11:11:03.585Z,19.16
2018-03-29T11:12:03.597Z,18.10
2018-03-29T11:13:03.590Z,16.99
2018-03-29T11:14:03.597Z,16.77
2018-03-29T11:15:03.604Z,16.78
2018-03-29T11:16:03.608Z,16.54
2018-03-29T11:17:03.614Z,16.30
2018-03-29T11:18:03.625Z,16.27
2018-03-29T11:19:03.626Z,16.17
2018-03-29T11:20:03.632Z,16.16
2018-03-29T11:21:03.634Z,15.96
2018-03-29T11:22:03.640Z,15.66
2018-03-29T11:23:03.647Z,15.44
2018-03-29T11:24:03.651Z,14.79
2018-03-29T11:25:03.705Z,14.86
2018-03-29T11:26:03.658Z,14.71
2018-03-29T11:27:03.656Z,14.56
2018-03-29T11:28:03.666Z,14.56
2018-03-29T11:29:03.661Z,14.34
2018-03-29T11:30:03.664Z,14.05
2018-03-29T11:31:03.667Z,13.69
2018-03-29T11:32:03.667Z,13.32
2018-03-29T11:33:03.670Z,13.10
2018-03-29T11:34:03.671Z,12.91
2018-03-29T11:35:03.672Z,12.79
2018-03-29T11:36:03.671Z,12.46
2018-03-29T11:37:03.679Z,12.11
2018-03-29T11:38:03.677Z,11.94
2018-03-29T11:39:03.673Z,11.72
2018-03-29T11:40:03.672Z,11.46
2018-03-29T11:41:03.672Z,11.63
2018-03-29T11:42:03.671Z,11.96
2018-03-29T11:43:03.681Z,11.93
2018-03-29T11:44:03.674Z,12.16
2018-03-29T11:45:03.669Z,12.49
2018-03-29T11:46:03.669Z,12.80
2018-03-29T11:47:03.668Z,12.89
2018-03-29T11:48:03.666Z,12.36
2018-03-29T11:49:03.664Z,12.43
2018-03-29T11:50:03.664Z,12.04
2018-03-29T11:51:03.664Z,12.04
2018-03-29T11:52:03.661Z,12.26
2018-03-29T11:53:03.661Z,12.59
2018-03-29T11:54:03.658Z,12.88
2018-03-29T11:55:03.662Z,13.13
2018-03-29T11:56:03.659Z,13.19
2018-03-29T11:57:03.657Z,12.99
2018-03-29T11:58:03.656Z,13.21
2018-03-29T11:59:03.652Z,12.81
2018-03-29T12:00:03.651Z,12.76
2018-03-29T12:01:03.649Z,12.94
2018-03-29T12:02:03.649Z,13.06
2018-03-29T12:03:03.646Z,13.13
2018-03-29T12:04:03.647Z,13.14
2018-03-29T12:05:03.652Z,12.81
2018-03-29T12:06:03.641Z,12.89
2018-03-29T12:07:03.640Z,12.71
2018-03-29T12:08:03.638Z,12.58
2018-03-29T12:09:03.640Z,12.19
2018-03-29T12:10:03.639Z,11.79
2018-03-29T12:11:03.633Z,11.57
2018-03-29T12:12:03.632Z,11.59
2018-03-29T12:13:03.630Z,11.57
2018-03-29T12:14:03.628Z,11.36
2018-03-29T12:15:03.626Z,11.27
2018-03-29T12:16:03.622Z,11.30
2018-03-29T12:17:03.626Z,11.27
2018-03-29T12:18:03.626Z,11.20
2018-03-29T12:19:03.615Z,11.19
2018-03-29T12:20:03.612Z,11.13
2018-03-29T12:21:03.614Z,11.02
2018-03-29T12:22:03.612Z,11.03
2018-03-29T12:23:03.606Z,11.05
2018-03-29T12:24:03.602Z,10.87
2018-03-29T12:25:03.604Z,10.90
2018-03-29T12:26:03.596Z,10.70
2018-03-29T12:27:03.594Z,10.44
2018-03-29T12:28:03.590Z,10.22
2018-03-29T12:29:03.587Z,10.20
2018-03-29T12:30:03.584Z,10.16
2018-03-29T12:31:03.580Z,10.16
2018-03-29T12:32:03.574Z,10.18
2018-03-29T12:33:03.572Z,10.22
2018-03-29T12:34:03.568Z,10.42
2018-03-29T12:35:03.568Z,10.80
2018-03-29T12:36:03.564Z,10.99
2018-03-29T12:37:03.556Z,11.16
2018-03-29T12:38:03.553Z,11.48
2018-03-29T12:39:03.554Z,11.59
2018-03-29T12:40:03.549Z,11.63
2018-03-29T12:41:03.544Z,11.96
2018-03-29T12:42:03.539Z,11.96
2018-03-29T12:43:03.536Z,12.12
2018-03-29T12:44:03.534Z,12.12
2018-03-29T12:45:03.585Z,12.00
2018-03-29T12:46:03.525Z,11.66
2018-03-29T12:47:03.559Z,11.75
2018-03-29T12:48:03.518Z,11.45
2018-03-29T12:49:03.519Z,11.16
2018-03-29T12:50:03.516Z,11.05
2018-03-29T12:51:03.542Z,10.86
2018-03-29T12:52:03.504Z,10.52
2018-03-29T12:53:03.511Z,10.44
2018-03-29T12:54:03.503Z,10.25
2018-03-29T12:55:03.496Z,10.32
2018-03-29T12:56:03.492Z,9.93
2018-03-29T12:57:03.489Z,9.88
2018-03-29T12:58:03.487Z,9.58
2018-03-29T12:59:03.483Z,9.67
2018-03-29T13:00:03.483Z,9.85
2018-03-29T13:01:03.481Z,9.78
2018-03-29T13:02:03.472Z,9.91
2018-03-29T13:03:03.467Z,9.71
2018-03-29T13:04:03.463Z,9.78
2018-03-29T13:05:03.458Z,9.91
2018-03-29T13:06:03.508Z,10.07
2018-03-29T13:07:03.456Z,10.04
2018-03-29T13:08:03.449Z,10.16
2018-03-29T13:09:03.440Z,10.02
2018-03-29T13:10:03.437Z,10.04